• Join FlightAware (Why Join?)
  • Login
  • US Flag 
07:25PM EDT


 

Airport Tracker/Info


-or-


 

Live Flight TrackerFlight Track Log ✈ N830QS ✈ 10-Oct-2013 ✈ MYNN / NAS - KMIA

Flight Track Log - Related Links

Times and Time Zones

All times are in EDT time to prevent confusion due to time zone crossing. See the N830QS flight status page for this flight to view local times or setup timezone preferences in your user account.

Time Position Orientation Groundspeed Altitude Reporting Facility
EDT Latitude Longitude Course Direction KTS MPH feet Rate Location/Type
10:29AM 25.0092 -77.3953 242° Southwest 322 371 5,500  Level Miami Center
10:30AM 24.9797 -77.4572 242° Southwest 185 213 9,700 3,300 Climbing Miami Center
10:31AM 24.9919 -77.5444 279° West 195 224 12,200 2,460 Climbing Miami Center
10:32AM 25.0061 -77.6478 279° West 266 306 14,700 1,860 Climbing Miami Center
10:33AM 25.0097 -77.7556 272° West 320 368 16,000 600 Climbing Miami Center
10:34AM 25.0131 -77.8656 272° West 348 400 16,000  Level Miami Center
10:35AM 25.0333 -77.9758 281° West 365 420 16,000  Level Miami Center
10:36AM 25.0553 -78.0792 283° West 365 420 16,000  Level Miami Center
10:37AM 25.0797 -78.1828 285° West 354 407 16,100  Climbing Miami Center
10:38AM 25.0994 -78.2886 282° West 354 407 16,000 -60 Descending Miami Center
10:39AM 25.1214 -78.3944 283° West 354 407 16,000  Level Miami Center
10:40AM 25.1433 -78.4981 283° West 354 407 16,000  Level Miami Center
10:41AM 25.1653 -78.5992 284° West 354 407 16,000  Level Miami Center
10:42AM 25.2078 -78.6964 296° West 349 402 16,000  Level Miami Center
10:43AM 25.2483 -78.7933 295° West 349 402 16,000  Level Miami Center
10:44AM 25.2386 -78.8989 264° West 335 386 16,000 -180 Level Miami Center
10:45AM 25.2497 -79.0072 276° West 345 397 15,700 -900 Descending Miami Center
10:46AM 25.2692 -79.1039 283° West 350 403 14,200 -1,500 Descending Miami Center
10:47AM 25.2864 -79.1961 282° West 332 382 12,800 -1,140 Descending Miami Center
10:48AM 25.3186 -79.2794 293° West 313 360 12,000 -420 Descending Miami Center
10:49AM 25.3525 -79.3675 293° West 307 353 12,000  Level Miami Center
10:50AM 25.3908 -79.4581 295° West 312 359 12,000  Level Miami Center
10:50AM 25.4042 -79.5206 283° West 315 362 12,000  Level Miami Center
10:51AM 25.4039 -79.5342 269° West 314 361 12,000  Level Miami Center
10:51AM 25.4139 -79.5689 288° West 317 365 12,000  Level Miami Center
10:52AM 25.4167 -79.6381 273° West 326 375 12,000  Level Miami Center
10:52AM 25.4225 -79.6658 283° West 312 359 12,000  Level Miami Center
10:53AM 25.4211 -79.7325 269° West 317 365 12,000  Level Miami Center
10:53AM 25.4206 -79.7622 269° West 312 359 12,000  Level Miami Center
10:54AM 25.4172 -79.8289 267° West 316 364 12,000 -300 Level Miami Center
10:54AM 25.4333 -79.8547 305° West 312 359 11,700 -1,140 Descending Miami Center
10:55AM 25.4658 -79.9014 308° West 279 321 10,900 -1,440 Descending Miami Center
10:55AM 25.4842 -79.9203 317° Northwest 284 327 10,300 -1,680 Descending Miami Center
10:56AM 25.5250 -79.9744 310° West 292 336 9,200 -1,320 Descending Miami Center
10:56AM 25.5414 -79.9864 327° Northwest 290 334 9,000 -180 Descending Miami Center
10:57AM 25.5961 -80.0569 311° West 295 339 9,000  Level Miami Center
10:58AM 25.6347 -80.1108 308° West 294 338 9,000  Level Miami Center
10:58AM 25.6511 -80.1206 332° Northwest 295 339 9,000 -120 Level Miami Center
10:59AM 25.6792 -80.1836 296° West 297 342 8,900 -540 Descending Miami Center
10:59AM 25.6869 -80.2022 295° West 295 339 8,500 -900 Descending Miami Center
11:00AM 25.6981 -80.2647 281° West 257 296 8,000 -600 Descending Miami Center
11:00AM 25.7061 -80.2789 302° West 280 322 7,900 -1,680 Descending Miami Center
11:01AM 25.7086 -80.3503 272° West 271 312 6,300 -1,980 Descending Miami Center
11:02AM 25.7150 -80.4336 275° West 273 314 4,300 -2,040 Descending Miami Center
11:03AM 25.7772 -80.4514 346° North 249 287 2,200 -1,380 Descending Miami Center
11:04AM 25.7975 -80.3944 68° East 191 220 1,500 -600 Descending Miami Center
11:05AM 25.7983 -80.3553 89° East 97 112 1,000 -600 Descending Miami Center
11:06AM 25.8014 -80.3183 85° East 106 122 300 -720 Descending Miami Center
11:08AM 25.7954 -80.2901 90° East  Level Estimated
11:15AM 25.7954 -80.2901 90° East  Level Estimated